sensor_id;sensor_type;location;lat;lon;timestamp;temperature;humidity
816;DHT22;25928;51.062;13.752;2022-08-19T00:00:50;23.60;1.00
816;DHT22;25928;51.062;13.752;2022-08-19T00:03:16;23.60;1.00
816;DHT22;25928;51.062;13.752;2022-08-19T00:05:42;23.60;1.00
816;DHT22;25928;51.062;13.752;2022-08-19T00:08:08;23.60;1.00
816;DHT22;25928;51.062;13.752;2022-08-19T00:10:33;23.50;1.00
816;DHT22;25928;51.062;13.752;2022-08-19T00:12:59;23.50;1.00
816;DHT22;25928;51.062;13.752;2022-08-19T00:15:25;23.40;1.00
816;DHT22;25928;51.062;13.752;2022-08-19T00:17:50;23.40;1.00
816;DHT22;25928;51.062;13.752;2022-08-19T00:20:20;23.30;1.00
816;DHT22;25928;51.062;13.752;2022-08-19T00:22:46;23.30;1.00
816;DHT22;25928;51.062;13.752;2022-08-19T00:25:13;23.30;1.00
816;DHT22;25928;51.062;13.752;2022-08-19T00:27:39;23.40;1.00
816;DHT22;25928;51.062;13.752;2022-08-19T00:30:07;23.40;1.00
816;DHT22;25928;51.062;13.752;2022-08-19T00:32:33;23.40;1.00
816;DHT22;25928;51.062;13.752;2022-08-19T00:35:00;23.50;1.00
816;DHT22;25928;51.062;13.752;2022-08-19T00:37:26;23.50;1.00
816;DHT22;25928;51.062;13.752;2022-08-19T00:39:52;23.50;1.00
816;DHT22;25928;51.062;13.752;2022-08-19T00:42:19;23.40;1.00
816;DHT22;25928;51.062;13.752;2022-08-19T00:44:45;23.30;1.00
816;DHT22;25928;51.062;13.752;2022-08-19T00:47:11;23.30;1.00
816;DHT22;25928;51.062;13.752;2022-08-19T00:49:47;23.20;1.00
816;DHT22;25928;51.062;13.752;2022-08-19T00:52:26;23.10;1.00
816;DHT22;25928;51.062;13.752;2022-08-19T00:54:54;23.00;1.00
816;DHT22;25928;51.062;13.752;2022-08-19T00:57:29;23.00;1.00
816;DHT22;25928;51.062;13.752;2022-08-19T00:59:56;23.10;1.00
816;DHT22;25928;51.062;13.752;2022-08-19T01:02:23;23.20;1.00
816;DHT22;25928;51.062;13.752;2022-08-19T01:04:48;23.20;1.00
816;DHT22;25928;51.062;13.752;2022-08-19T01:07:14;23.20;1.00
816;DHT22;25928;51.062;13.752;2022-08-19T01:09:40;23.00;1.00
816;DHT22;25928;51.062;13.752;2022-08-19T01:12:06;23.00;1.00
816;DHT22;25928;51.062;13.752;2022-08-19T01:14:32;22.90;1.00
816;DHT22;25928;51.062;13.752;2022-08-19T01:16:58;22.90;1.00
816;DHT22;25928;51.062;13.752;2022-08-19T01:19:33;22.90;1.00
816;DHT22;25928;51.062;13.752;2022-08-19T01:22:12;22.90;1.00
816;DHT22;25928;51.062;13.752;2022-08-19T01:24:40;22.90;1.00
816;DHT22;25928;51.062;13.752;2022-08-19T01:27:06;22.90;1.00
816;DHT22;25928;51.062;13.752;2022-08-19T01:29:33;23.00;1.00
816;DHT22;25928;51.062;13.752;2022-08-19T01:32:00;23.00;1.00
816;DHT22;25928;51.062;13.752;2022-08-19T01:34:26;23.10;1.00
816;DHT22;25928;51.062;13.752;2022-08-19T01:36:52;23.10;1.00
816;DHT22;25928;51.062;13.752;2022-08-19T01:39:21;23.00;1.00
816;DHT22;25928;51.062;13.752;2022-08-19T01:41:47;23.10;1.00
816;DHT22;25928;51.062;13.752;2022-08-19T01:44:14;23.10;1.00
816;DHT22;25928;51.062;13.752;2022-08-19T01:46:40;23.10;1.00
816;DHT22;25928;51.062;13.752;2022-08-19T01:49:07;23.00;1.00
816;DHT22;25928;51.062;13.752;2022-08-19T01:51:33;23.00;1.00
816;DHT22;25928;51.062;13.752;2022-08-19T01:53:59;23.10;1.00
816;DHT22;25928;51.062;13.752;2022-08-19T01:56:26;22.90;1.00
816;DHT22;25928;51.062;13.752;2022-08-19T01:59:04;23.00;1.00
816;DHT22;25928;51.062;13.752;2022-08-19T02:01:31;22.80;1.00
816;DHT22;25928;51.062;13.752;2022-08-19T02:03:57;22.90;1.00
816;DHT22;25928;51.062;13.752;2022-08-19T02:06:23;22.80;1.00
816;DHT22;25928;51.062;13.752;2022-08-19T02:08:49;22.80;1.00
816;DHT22;25928;51.062;13.752;2022-08-19T02:11:30;22.70;1.00
816;DHT22;25928;51.062;13.752;2022-08-19T02:13:57;23.00;1.00
816;DHT22;25928;51.062;13.752;2022-08-19T02:16:23;22.90;1.00
816;DHT22;25928;51.062;13.752;2022-08-19T02:18:49;23.00;1.00
816;DHT22;25928;51.062;13.752;2022-08-19T02:21:16;23.00;1.00
816;DHT22;25928;51.062;13.752;2022-08-19T02:23:42;23.00;1.00
816;DHT22;25928;51.062;13.752;2022-08-19T02:26:09;23.10;1.00
816;DHT22;25928;51.062;13.752;2022-08-19T02:28:35;23.10;1.00
816;DHT22;25928;51.062;13.752;2022-08-19T02:31:02;23.30;1.00
816;DHT22;25928;51.062;13.752;2022-08-19T02:33:35;23.40;1.00
816;DHT22;25928;51.062;13.752;2022-08-19T02:36:07;23.40;1.00
816;DHT22;25928;51.062;13.752;2022-08-19T02:38:33;23.50;1.00
816;DHT22;25928;51.062;13.752;2022-08-19T02:41:01;23.50;1.00
816;DHT22;25928;51.062;13.752;2022-08-19T02:43:29;23.60;1.00
816;DHT22;25928;51.062;13.752;2022-08-19T02:45:55;23.50;1.00
816;DHT22;25928;51.062;13.752;2022-08-19T02:48:23;23.40;1.00
816;DHT22;25928;51.062;13.752;2022-08-19T02:50:51;23.40;1.00
816;DHT22;25928;51.062;13.752;2022-08-19T02:53:24;23.50;1.00
816;DHT22;25928;51.062;13.752;2022-08-19T02:55:51;23.50;1.00
816;DHT22;25928;51.062;13.752;2022-08-19T02:58:18;23.30;1.00
816;DHT22;25928;51.062;13.752;2022-08-19T03:00:46;23.50;1.00
816;DHT22;25928;51.062;13.752;2022-08-19T03:03:12;23.30;1.00
816;DHT22;25928;51.062;13.752;2022-08-19T03:05:38;23.30;1.00
816;DHT22;25928;51.062;13.752;2022-08-19T03:08:04;23.30;1.00
816;DHT22;25928;51.062;13.752;2022-08-19T03:10:31;23.30;1.00
816;DHT22;25928;51.062;13.752;2022-08-19T03:12:57;23.20;1.00
816;DHT22;25928;51.062;13.752;2022-08-19T03:15:23;23.40;1.00
816;DHT22;25928;51.062;13.752;2022-08-19T03:17:48;23.30;1.00
816;DHT22;25928;51.062;13.752;2022-08-19T03:20:14;23.30;1.00
816;DHT22;25928;51.062;13.752;2022-08-19T03:22:39;23.30;1.00
816;DHT22;25928;51.062;13.752;2022-08-19T03:25:06;23.30;1.00
816;DHT22;25928;51.062;13.752;2022-08-19T03:27:31;23.30;1.00
816;DHT22;25928;51.062;13.752;2022-08-19T03:29:57;23.30;1.00
816;DHT22;25928;51.062;13.752;2022-08-19T03:32:22;23.20;1.00
816;DHT22;25928;51.062;13.752;2022-08-19T03:34:48;23.30;1.00
816;DHT22;25928;51.062;13.752;2022-08-19T03:37:14;23.30;1.00
816;DHT22;25928;51.062;13.752;2022-08-19T03:39:41;23.10;1.00
816;DHT22;25928;51.062;13.752;2022-08-19T03:42:08;23.20;1.00
816;DHT22;25928;51.062;13.752;2022-08-19T03:44:34;23.30;1.00
816;DHT22;25928;51.062;13.752;2022-08-19T03:47:01;23.30;1.00
816;DHT22;25928;51.062;13.752;2022-08-19T03:49:29;23.50;1.00
816;DHT22;25928;51.062;13.752;2022-08-19T03:51:57;23.40;1.00
816;DHT22;25928;51.062;13.752;2022-08-19T03:54:24;23.30;1.00
816;DHT22;25928;51.062;13.752;2022-08-19T03:56:53;23.40;1.00
816;DHT22;25928;51.062;13.752;2022-08-19T03:59:31;23.30;1.00
816;DHT22;25928;51.062;13.752;2022-08-19T04:02:00;22.50;1.00
816;DHT22;25928;51.062;13.752;2022-08-19T04:04:27;23.40;1.00
816;DHT22;25928;51.062;13.752;2022-08-19T04:06:54;23.50;1.00
816;DHT22;25928;51.062;13.752;2022-08-19T04:09:20;23.40;1.00
816;DHT22;25928;51.062;13.752;2022-08-19T04:11:48;23.40;1.00
816;DHT22;25928;51.062;13.752;2022-08-19T04:14:18;23.30;1.00
816;DHT22;25928;51.062;13.752;2022-08-19T04:16:44;23.30;1.00
816;DHT22;25928;51.062;13.752;2022-08-19T04:19:10;23.20;1.00
816;DHT22;25928;51.062;13.752;2022-08-19T04:21:36;23.30;1.00
816;DHT22;25928;51.062;13.752;2022-08-19T04:24:02;23.20;1.00
816;DHT22;25928;51.062;13.752;2022-08-19T04:26:35;23.20;1.00
816;DHT22;25928;51.062;13.752;2022-08-19T04:29:10;23.80;1.00
816;DHT22;25928;51.062;13.752;2022-08-19T04:31:36;23.20;1.00
816;DHT22;25928;51.062;13.752;2022-08-19T04:34:04;23.20;1.00
816;DHT22;25928;51.062;13.752;2022-08-19T04:36:33;23.20;1.00
816;DHT22;25928;51.062;13.752;2022-08-19T04:39:02;21.20;1.00
816;DHT22;25928;51.062;13.752;2022-08-19T04:41:29;23.30;1.00
816;DHT22;25928;51.062;13.752;2022-08-19T04:44:14;23.30;1.00
816;DHT22;25928;51.062;13.752;2022-08-19T04:46:44;23.40;1.00
816;DHT22;25928;51.062;13.752;2022-08-19T04:49:10;23.60;1.00
816;DHT22;25928;51.062;13.752;2022-08-19T04:51:39;23.60;1.00
816;DHT22;25928;51.062;13.752;2022-08-19T04:54:05;23.50;1.00
816;DHT22;25928;51.062;13.752;2022-08-19T04:56:30;23.60;1.00
816;DHT22;25928;51.062;13.752;2022-08-19T04:58:56;23.50;1.00
816;DHT22;25928;51.062;13.752;2022-08-19T05:01:32;23.40;1.00
816;DHT22;25928;51.062;13.752;2022-08-19T05:03:59;23.40;1.00
816;DHT22;25928;51.062;13.752;2022-08-19T05:06:26;23.30;1.00
816;DHT22;25928;51.062;13.752;2022-08-19T05:08:53;23.30;1.00
816;DHT22;25928;51.062;13.752;2022-08-19T05:11:24;23.40;1.00
816;DHT22;25928;51.062;13.752;2022-08-19T05:13:51;23.20;1.00
816;DHT22;25928;51.062;13.752;2022-08-19T05:16:20;23.10;1.00
816;DHT22;25928;51.062;13.752;2022-08-19T05:18:46;23.10;1.00
816;DHT22;25928;51.062;13.752;2022-08-19T05:21:31;23.00;1.00
816;DHT22;25928;51.062;13.752;2022-08-19T05:24:17;23.00;1.00
816;DHT22;25928;51.062;13.752;2022-08-19T05:26:45;23.10;1.00
816;DHT22;25928;51.062;13.752;2022-08-19T05:29:19;22.90;1.00
816;DHT22;25928;51.062;13.752;2022-08-19T05:31:45;22.90;1.00
816;DHT22;25928;51.062;13.752;2022-08-19T05:34:12;22.90;1.00
816;DHT22;25928;51.062;13.752;2022-08-19T05:36:42;22.90;1.00
816;DHT22;25928;51.062;13.752;2022-08-19T05:39:10;22.90;1.00
816;DHT22;25928;51.062;13.752;2022-08-19T05:41:44;22.90;1.00
816;DHT22;25928;51.062;13.752;2022-08-19T05:44:10;23.00;1.00
816;DHT22;25928;51.062;13.752;2022-08-19T05:46:37;23.10;1.00
816;DHT22;25928;51.062;13.752;2022-08-19T05:49:07;23.10;1.00
816;DHT22;25928;51.062;13.752;2022-08-19T05:51:34;23.00;1.00
816;DHT22;25928;51.062;13.752;2022-08-19T05:54:01;23.10;1.00
816;DHT22;25928;51.062;13.752;2022-08-19T05:58:53;23.00;1.00
816;DHT22;25928;51.062;13.752;2022-08-19T06:01:20;23.00;1.00
816;DHT22;25928;51.062;13.752;2022-08-19T06:03:46;22.90;1.00
816;DHT22;25928;51.062;13.752;2022-08-19T06:06:14;22.90;1.00
816;DHT22;25928;51.062;13.752;2022-08-19T06:08:40;22.80;1.00
816;DHT22;25928;51.062;13.752;2022-08-19T06:13:47;22.80;1.00
816;DHT22;25928;51.062;13.752;2022-08-19T06:16:20;22.80;1.00
816;DHT22;25928;51.062;13.752;2022-08-19T06:18:54;22.90;1.00
816;DHT22;25928;51.062;13.752;2022-08-19T06:21:25;22.80;1.00
816;DHT22;25928;51.062;13.752;2022-08-19T06:23:53;22.70;1.00
816;DHT22;25928;51.062;13.752;2022-08-19T06:26:19;22.70;1.00
816;DHT22;25928;51.062;13.752;2022-08-19T06:28:46;22.90;1.00
816;DHT22;25928;51.062;13.752;2022-08-19T06:31:21;22.90;1.00
816;DHT22;25928;51.062;13.752;2022-08-19T06:33:48;23.00;1.00
816;DHT22;25928;51.062;13.752;2022-08-19T06:36:21;23.00;1.00
816;DHT22;25928;51.062;13.752;2022-08-19T06:38:52;23.00;1.00
816;DHT22;25928;51.062;13.752;2022-08-19T06:41:18;23.10;1.00
816;DHT22;25928;51.062;13.752;2022-08-19T06:43:43;23.00;1.00
816;DHT22;25928;51.062;13.752;2022-08-19T06:46:11;22.90;1.00
816;DHT22;25928;51.062;13.752;2022-08-19T06:48:37;23.00;1.00
816;DHT22;25928;51.062;13.752;2022-08-19T06:51:09;23.00;1.00
816;DHT22;25928;51.062;13.752;2022-08-19T06:53:34;23.10;1.00
816;DHT22;25928;51.062;13.752;2022-08-19T06:56:00;23.00;1.00
816;DHT22;25928;51.062;13.752;2022-08-19T06:58:28;22.90;1.00
816;DHT22;25928;51.062;13.752;2022-08-19T07:01:19;22.90;1.00
816;DHT22;25928;51.062;13.752;2022-08-19T07:03:43;22.80;1.00
816;DHT22;25928;51.062;13.752;2022-08-19T07:06:14;22.90;1.00
816;DHT22;25928;51.062;13.752;2022-08-19T07:08:43;22.90;1.00
816;DHT22;25928;51.062;13.752;2022-08-19T07:11:11;22.90;1.00
816;DHT22;25928;51.062;13.752;2022-08-19T07:13:39;22.80;1.00
816;DHT22;25928;51.062;13.752;2022-08-19T07:16:11;22.90;1.00
816;DHT22;25928;51.062;13.752;2022-08-19T07:18:38;22.90;1.00
816;DHT22;25928;51.062;13.752;2022-08-19T07:21:19;22.90;1.00
816;DHT22;25928;51.062;13.752;2022-08-19T07:23:45;22.90;1.00
816;DHT22;25928;51.062;13.752;2022-08-19T07:26:15;22.90;1.00
816;DHT22;25928;51.062;13.752;2022-08-19T07:28:42;23.00;1.00
816;DHT22;25928;51.062;13.752;2022-08-19T07:31:11;22.70;1.00
816;DHT22;25928;51.062;13.752;2022-08-19T07:33:38;22.70;1.00
816;DHT22;25928;51.062;13.752;2022-08-19T07:36:12;22.80;1.00
816;DHT22;25928;51.062;13.752;2022-08-19T07:38:40;22.80;1.00
816;DHT22;25928;51.062;13.752;2022-08-19T07:41:11;22.70;1.00
816;DHT22;25928;51.062;13.752;2022-08-19T07:43:38;24.60;1.00
816;DHT22;25928;51.062;13.752;2022-08-19T07:46:11;22.70;1.00
816;DHT22;25928;51.062;13.752;2022-08-19T07:48:37;22.60;1.00
816;DHT22;25928;51.062;13.752;2022-08-19T07:51:09;22.60;1.00
816;DHT22;25928;51.062;13.752;2022-08-19T07:53:36;22.50;1.00
816;DHT22;25928;51.062;13.752;2022-08-19T07:56:11;22.50;1.00
816;DHT22;25928;51.062;13.752;2022-08-19T07:58:39;22.40;1.00
816;DHT22;25928;51.062;13.752;2022-08-19T08:01:12;22.20;1.00
816;DHT22;25928;51.062;13.752;2022-08-19T08:03:38;22.30;1.00
816;DHT22;25928;51.062;13.752;2022-08-19T08:06:23;22.50;1.00
816;DHT22;25928;51.062;13.752;2022-08-19T08:09:08;22.50;1.00
816;DHT22;25928;51.062;13.752;2022-08-19T08:11:49;22.60;1.00
816;DHT22;25928;51.062;13.752;2022-08-19T08:14:31;22.60;1.00
816;DHT22;25928;51.062;13.752;2022-08-19T08:16:58;22.60;1.00
816;DHT22;25928;51.062;13.752;2022-08-19T08:19:25;22.70;1.00
816;DHT22;25928;51.062;13.752;2022-08-19T08:21:53;22.70;1.00
816;DHT22;25928;51.062;13.752;2022-08-19T08:24:19;22.90;1.00
816;DHT22;25928;51.062;13.752;2022-08-19T08:26:45;22.70;1.00
816;DHT22;25928;51.062;13.752;2022-08-19T08:29:11;22.70;1.00
816;DHT22;25928;51.062;13.752;2022-08-19T08:34:04;22.30;1.00
816;DHT22;25928;51.062;13.752;2022-08-19T08:36:29;22.20;1.00
816;DHT22;25928;51.062;13.752;2022-08-19T08:38:59;22.20;1.00
816;DHT22;25928;51.062;13.752;2022-08-19T08:44:02;22.50;1.00
816;DHT22;25928;51.062;13.752;2022-08-19T08:46:52;22.80;1.00
816;DHT22;25928;51.062;13.752;2022-08-19T08:49:41;23.00;1.00
816;DHT22;25928;51.062;13.752;2022-08-19T08:52:23;23.20;1.00
816;DHT22;25928;51.062;13.752;2022-08-19T08:54:55;23.40;1.00
816;DHT22;25928;51.062;13.752;2022-08-19T08:59:57;23.50;1.00
816;DHT22;25928;51.062;13.752;2022-08-19T09:02:25;23.50;1.00
816;DHT22;25928;51.062;13.752;2022-08-19T09:04:51;23.50;1.00
816;DHT22;25928;51.062;13.752;2022-08-19T09:09:52;23.40;1.00
816;DHT22;25928;51.062;13.752;2022-08-19T09:12:38;23.70;1.00
816;DHT22;25928;51.062;13.752;2022-08-19T09:15:13;23.80;1.00
816;DHT22;25928;51.062;13.752;2022-08-19T09:17:39;23.80;1.00
816;DHT22;25928;51.062;13.752;2022-08-19T09:20:23;23.90;1.00
816;DHT22;25928;51.062;13.752;2022-08-19T09:22:49;24.00;1.00
816;DHT22;25928;51.062;13.752;2022-08-19T09:25:19;24.20;1.00
816;DHT22;25928;51.062;13.752;2022-08-19T09:27:49;24.60;1.00
816;DHT22;25928;51.062;13.752;2022-08-19T09:30:21;24.70;1.00
816;DHT22;25928;51.062;13.752;2022-08-19T09:32:48;24.80;1.00
816;DHT22;25928;51.062;13.752;2022-08-19T09:35:14;25.00;1.00
816;DHT22;25928;51.062;13.752;2022-08-19T09:37:41;24.90;1.00
816;DHT22;25928;51.062;13.752;2022-08-19T09:40:08;24.60;1.00
816;DHT22;25928;51.062;13.752;2022-08-19T09:42:34;24.60;1.00
816;DHT22;25928;51.062;13.752;2022-08-19T09:45:00;24.70;1.00
816;DHT22;25928;51.062;13.752;2022-08-19T09:47:26;24.70;1.00
816;DHT22;25928;51.062;13.752;2022-08-19T09:49:51;24.70;1.00
816;DHT22;25928;51.062;13.752;2022-08-19T09:52:17;24.60;1.00
816;DHT22;25928;51.062;13.752;2022-08-19T09:54:43;24.50;1.00
816;DHT22;25928;51.062;13.752;2022-08-19T09:57:09;24.50;1.00
816;DHT22;25928;51.062;13.752;2022-08-19T09:59:35;24.30;1.00
816;DHT22;25928;51.062;13.752;2022-08-19T10:02:01;24.30;1.00
816;DHT22;25928;51.062;13.752;2022-08-19T10:04:27;24.30;1.00
816;DHT22;25928;51.062;13.752;2022-08-19T10:07:13;24.30;1.00
816;DHT22;25928;51.062;13.752;2022-08-19T10:09:39;24.40;1.00
816;DHT22;25928;51.062;13.752;2022-08-19T10:12:06;24.50;1.00
816;DHT22;25928;51.062;13.752;2022-08-19T10:14:32;24.40;1.00
816;DHT22;25928;51.062;13.752;2022-08-19T10:16:58;24.40;1.00
816;DHT22;25928;51.062;13.752;2022-08-19T10:19:25;24.40;1.00
816;DHT22;25928;51.062;13.752;2022-08-19T10:21:52;24.60;1.00
816;DHT22;25928;51.062;13.752;2022-08-19T10:24:18;24.80;1.00
816;DHT22;25928;51.062;13.752;2022-08-19T10:29:13;25.50;1.00
816;DHT22;25928;51.062;13.752;2022-08-19T10:31:41;26.00;1.00
816;DHT22;25928;51.062;13.752;2022-08-19T10:34:07;26.30;1.00
816;DHT22;25928;51.062;13.752;2022-08-19T10:36:35;26.20;1.00
816;DHT22;25928;51.062;13.752;2022-08-19T10:39:04;26.10;1.00
816;DHT22;25928;51.062;13.752;2022-08-19T10:41:36;25.90;1.00
816;DHT22;25928;51.062;13.752;2022-08-19T10:44:05;25.90;1.00
816;DHT22;25928;51.062;13.752;2022-08-19T10:46:33;26.30;1.00
816;DHT22;25928;51.062;13.752;2022-08-19T10:49:04;26.80;1.00
816;DHT22;25928;51.062;13.752;2022-08-19T10:51:30;27.00;1.00
816;DHT22;25928;51.062;13.752;2022-08-19T10:54:14;26.80;1.00
816;DHT22;25928;51.062;13.752;2022-08-19T10:56:39;26.70;1.00
816;DHT22;25928;51.062;13.752;2022-08-19T10:59:26;26.70;1.00
816;DHT22;25928;51.062;13.752;2022-08-19T11:02:00;26.50;1.00
816;DHT22;25928;51.062;13.752;2022-08-19T11:06:52;26.60;1.00
816;DHT22;25928;51.062;13.752;2022-08-19T11:09:21;26.90;1.00
816;DHT22;25928;51.062;13.752;2022-08-19T11:11:49;27.10;1.00
816;DHT22;25928;51.062;13.752;2022-08-19T11:14:17;27.10;1.00
816;DHT22;25928;51.062;13.752;2022-08-19T11:16:45;27.00;1.00
816;DHT22;25928;51.062;13.752;2022-08-19T11:19:11;26.90;1.00
816;DHT22;25928;51.062;13.752;2022-08-19T11:21:43;26.80;1.00
816;DHT22;25928;51.062;13.752;2022-08-19T11:24:16;26.80;1.00
816;DHT22;25928;51.062;13.752;2022-08-19T11:26:44;26.80;1.00
816;DHT22;25928;51.062;13.752;2022-08-19T11:29:11;26.80;1.00
816;DHT22;25928;51.062;13.752;2022-08-19T11:31:40;26.50;1.00
816;DHT22;25928;51.062;13.752;2022-08-19T11:34:08;26.30;1.00
816;DHT22;25928;51.062;13.752;2022-08-19T11:36:37;26.10;1.00
816;DHT22;25928;51.062;13.752;2022-08-19T11:39:06;26.20;1.00
816;DHT22;25928;51.062;13.752;2022-08-19T11:41:32;26.00;1.00
816;DHT22;25928;51.062;13.752;2022-08-19T11:43:57;26.10;1.00
816;DHT22;25928;51.062;13.752;2022-08-19T11:46:24;26.00;1.00
816;DHT22;25928;51.062;13.752;2022-08-19T11:48:51;25.90;1.00
816;DHT22;25928;51.062;13.752;2022-08-19T11:51:20;25.80;1.00
816;DHT22;25928;51.062;13.752;2022-08-19T11:53:47;25.70;1.00
816;DHT22;25928;51.062;13.752;2022-08-19T11:58:39;25.60;1.00
816;DHT22;25928;51.062;13.752;2022-08-19T12:01:15;25.60;1.00
816;DHT22;25928;51.062;13.752;2022-08-19T12:03:46;25.60;1.00
816;DHT22;25928;51.062;13.752;2022-08-19T12:06:15;25.60;1.00
816;DHT22;25928;51.062;13.752;2022-08-19T12:08:42;25.50;1.00
816;DHT22;25928;51.062;13.752;2022-08-19T12:11:15;25.50;1.00
816;DHT22;25928;51.062;13.752;2022-08-19T12:13:42;25.30;1.00
816;DHT22;25928;51.062;13.752;2022-08-19T12:16:23;25.20;1.00
816;DHT22;25928;51.062;13.752;2022-08-19T12:18:49;25.00;1.00
816;DHT22;25928;51.062;13.752;2022-08-19T12:21:18;24.80;1.00
816;DHT22;25928;51.062;13.752;2022-08-19T12:23:47;24.80;1.00
816;DHT22;25928;51.062;13.752;2022-08-19T12:26:13;24.70;1.00
816;DHT22;25928;51.062;13.752;2022-08-19T12:28:39;24.90;1.00
816;DHT22;25928;51.062;13.752;2022-08-19T12:31:11;25.20;1.00
816;DHT22;25928;51.062;13.752;2022-08-19T12:33:37;25.50;1.00
816;DHT22;25928;51.062;13.752;2022-08-19T12:36:16;25.80;1.00
816;DHT22;25928;51.062;13.752;2022-08-19T12:38:43;25.90;1.00
816;DHT22;25928;51.062;13.752;2022-08-19T12:41:14;24.20;1.00
816;DHT22;25928;51.062;13.752;2022-08-19T12:43:40;25.70;1.00
816;DHT22;25928;51.062;13.752;2022-08-19T12:46:11;25.70;1.00
816;DHT22;25928;51.062;13.752;2022-08-19T12:48:38;25.60;1.00
816;DHT22;25928;51.062;13.752;2022-08-19T12:51:13;25.50;1.00
816;DHT22;25928;51.062;13.752;2022-08-19T12:53:39;25.40;1.00
816;DHT22;25928;51.062;13.752;2022-08-19T12:56:17;25.30;1.00
816;DHT22;25928;51.062;13.752;2022-08-19T12:58:44;25.10;1.00
816;DHT22;25928;51.062;13.752;2022-08-19T13:01:16;25.10;1.00
816;DHT22;25928;51.062;13.752;2022-08-19T13:03:42;25.20;1.00
816;DHT22;25928;51.062;13.752;2022-08-19T13:06:14;25.30;1.00
816;DHT22;25928;51.062;13.752;2022-08-19T13:08:40;25.30;1.00
816;DHT22;25928;51.062;13.752;2022-08-19T13:11:16;25.50;1.00
816;DHT22;25928;51.062;13.752;2022-08-19T13:13:44;25.40;1.00
816;DHT22;25928;51.062;13.752;2022-08-19T13:16:17;25.20;1.00
816;DHT22;25928;51.062;13.752;2022-08-19T13:18:45;25.20;1.00
816;DHT22;25928;51.062;13.752;2022-08-19T13:21:13;25.10;1.00
816;DHT22;25928;51.062;13.752;2022-08-19T13:23:40;25.10;1.00
816;DHT22;25928;51.062;13.752;2022-08-19T13:26:18;25.00;1.00
816;DHT22;25928;51.062;13.752;2022-08-19T13:28:45;24.90;1.00
816;DHT22;25928;51.062;13.752;2022-08-19T13:31:31;24.60;1.00
816;DHT22;25928;51.062;13.752;2022-08-19T13:34:18;24.60;1.00
816;DHT22;25928;51.062;13.752;2022-08-19T13:36:45;24.40;1.00
816;DHT22;25928;51.062;13.752;2022-08-19T13:39:10;24.40;1.00
816;DHT22;25928;51.062;13.752;2022-08-19T13:41:37;24.50;1.00
816;DHT22;25928;51.062;13.752;2022-08-19T13:44:03;24.50;1.00
816;DHT22;25928;51.062;13.752;2022-08-19T13:46:29;24.50;1.00
816;DHT22;25928;51.062;13.752;2022-08-19T13:48:56;24.40;1.00
816;DHT22;25928;51.062;13.752;2022-08-19T13:51:22;24.30;1.00
816;DHT22;25928;51.062;13.752;2022-08-19T13:53:48;24.40;1.00
816;DHT22;25928;51.062;13.752;2022-08-19T13:56:16;24.40;1.00
816;DHT22;25928;51.062;13.752;2022-08-19T13:58:42;24.40;1.00
816;DHT22;25928;51.062;13.752;2022-08-19T14:01:11;24.40;1.00
816;DHT22;25928;51.062;13.752;2022-08-19T14:03:38;24.50;1.00
816;DHT22;25928;51.062;13.752;2022-08-19T14:06:11;24.50;1.00
816;DHT22;25928;51.062;13.752;2022-08-19T14:08:36;24.50;1.00
816;DHT22;25928;51.062;13.752;2022-08-19T14:11:14;24.50;1.00
816;DHT22;25928;51.062;13.752;2022-08-19T14:13:39;24.50;1.00
816;DHT22;25928;51.062;13.752;2022-08-19T14:16:13;24.40;1.00
816;DHT22;25928;51.062;13.752;2022-08-19T14:18:39;24.40;1.00
816;DHT22;25928;51.062;13.752;2022-08-19T14:21:20;24.50;1.00
816;DHT22;25928;51.062;13.752;2022-08-19T14:23:47;24.70;1.00
816;DHT22;25928;51.062;13.752;2022-08-19T14:26:17;24.60;1.00
816;DHT22;25928;51.062;13.752;2022-08-19T14:28:43;24.40;1.00
816;DHT22;25928;51.062;13.752;2022-08-19T14:31:16;24.40;1.00
816;DHT22;25928;51.062;13.752;2022-08-19T14:33:47;24.40;1.00
816;DHT22;25928;51.062;13.752;2022-08-19T14:36:16;24.50;1.00
816;DHT22;25928;51.062;13.752;2022-08-19T14:38:42;24.50;1.00
816;DHT22;25928;51.062;13.752;2022-08-19T14:41:20;24.40;1.00
816;DHT22;25928;51.062;13.752;2022-08-19T14:43:48;24.10;1.00
816;DHT22;25928;51.062;13.752;2022-08-19T14:46:16;24.10;1.00
816;DHT22;25928;51.062;13.752;2022-08-19T14:48:43;24.00;1.00
816;DHT22;25928;51.062;13.752;2022-08-19T14:51:16;24.00;1.00
816;DHT22;25928;51.062;13.752;2022-08-19T14:53:42;24.00;1.00
816;DHT22;25928;51.062;13.752;2022-08-19T14:56:14;24.00;1.00
816;DHT22;25928;51.062;13.752;2022-08-19T14:58:40;24.10;1.00
816;DHT22;25928;51.062;13.752;2022-08-19T15:01:13;24.10;1.00
816;DHT22;25928;51.062;13.752;2022-08-19T15:03:39;24.10;1.00
816;DHT22;25928;51.062;13.752;2022-08-19T15:06:12;24.00;1.00
816;DHT22;25928;51.062;13.752;2022-08-19T15:08:40;24.00;1.00
816;DHT22;25928;51.062;13.752;2022-08-19T15:11:14;23.90;1.00
816;DHT22;25928;51.062;13.752;2022-08-19T15:13:42;24.00;1.00
816;DHT22;25928;51.062;13.752;2022-08-19T15:16:14;24.00;1.00
816;DHT22;25928;51.062;13.752;2022-08-19T15:18:41;23.90;1.00
816;DHT22;25928;51.062;13.752;2022-08-19T15:21:14;24.00;1.00
816;DHT22;25928;51.062;13.752;2022-08-19T15:23:47;24.10;1.00
816;DHT22;25928;51.062;13.752;2022-08-19T15:26:14;23.90;1.00
816;DHT22;25928;51.062;13.752;2022-08-19T15:28:40;23.90;1.00
816;DHT22;25928;51.062;13.752;2022-08-19T15:31:19;24.00;1.00
816;DHT22;25928;51.062;13.752;2022-08-19T15:33:45;24.00;1.00
816;DHT22;25928;51.062;13.752;2022-08-19T15:36:11;23.90;1.00
816;DHT22;25928;51.062;13.752;2022-08-19T15:38:38;23.80;1.00
816;DHT22;25928;51.062;13.752;2022-08-19T15:41:21;23.90;1.00
816;DHT22;25928;51.062;13.752;2022-08-19T15:46:20;24.10;1.00
816;DHT22;25928;51.062;13.752;2022-08-19T15:48:47;24.10;1.00
816;DHT22;25928;51.062;13.752;2022-08-19T15:51:14;24.10;1.00
816;DHT22;25928;51.062;13.752;2022-08-19T15:53:40;24.20;1.00
816;DHT22;25928;51.062;13.752;2022-08-19T15:56:14;24.30;1.00
816;DHT22;25928;51.062;13.752;2022-08-19T15:58:39;24.40;1.00
816;DHT22;25928;51.062;13.752;2022-08-19T16:01:24;24.60;1.00
816;DHT22;25928;51.062;13.752;2022-08-19T16:03:57;24.60;1.00
816;DHT22;25928;51.062;13.752;2022-08-19T16:06:51;24.40;1.00
816;DHT22;25928;51.062;13.752;2022-08-19T16:09:18;24.50;1.00
816;DHT22;25928;51.062;13.752;2022-08-19T16:11:45;24.50;1.00
816;DHT22;25928;51.062;13.752;2022-08-19T16:14:16;24.40;1.00
816;DHT22;25928;51.062;13.752;2022-08-19T16:16:43;24.50;1.00
816;DHT22;25928;51.062;13.752;2022-08-19T16:19:11;24.40;1.00
816;DHT22;25928;51.062;13.752;2022-08-19T16:21:41;24.20;1.00
816;DHT22;25928;51.062;13.752;2022-08-19T16:24:09;24.10;1.00
816;DHT22;25928;51.062;13.752;2022-08-19T16:26:36;24.10;1.00
816;DHT22;25928;51.062;13.752;2022-08-19T16:29:03;24.10;1.00
816;DHT22;25928;51.062;13.752;2022-08-19T16:31:29;24.20;1.00
816;DHT22;25928;51.062;13.752;2022-08-19T16:33:55;24.10;1.00
816;DHT22;25928;51.062;13.752;2022-08-19T16:36:21;24.20;1.00
816;DHT22;25928;51.062;13.752;2022-08-19T16:38:49;24.10;1.00